sensor_id;sensor_type;location;lat;lon;timestamp;pressure;altitude;pressure_sealevel;temperature;humidity
45345;BME280;31078;48.304;11.896;2023-04-27T00:01:05;96334.78;;;7.28;79.60
45345;BME280;31078;48.304;11.896;2023-04-27T00:03:35;96329.13;;;7.24;79.44
45345;BME280;31078;48.304;11.896;2023-04-27T00:06:01;96331.03;;;7.24;79.57
45345;BME280;31078;48.304;11.896;2023-04-27T00:08:28;96324.03;;;7.23;79.32
45345;BME280;31078;48.304;11.896;2023-04-27T00:10:56;96322.91;;;7.24;79.77
45345;BME280;31078;48.304;11.896;2023-04-27T00:13:23;96312.88;;;7.11;79.99
45345;BME280;31078;48.304;11.896;2023-04-27T00:15:49;96314.84;;;7.05;79.92
45345;BME280;31078;48.304;11.896;2023-04-27T00:18:16;96322.06;;;7.10;79.75
45345;BME280;31078;48.304;11.896;2023-04-27T00:20:42;96326.91;;;7.13;79.44
45345;BME280;31078;48.304;11.896;2023-04-27T00:23:09;96321.41;;;7.18;79.00
45345;BME280;31078;48.304;11.896;2023-04-27T00:25:35;96328.94;;;7.21;78.49
45345;BME280;31078;48.304;11.896;2023-04-27T00:28:03;96322.91;;;7.24;78.86
45345;BME280;31078;48.304;11.896;2023-04-27T00:30:30;96325.31;;;7.25;78.30
45345;BME280;31078;48.304;11.896;2023-04-27T00:32:57;96330.97;;;7.29;79.14
45345;BME280;31078;48.304;11.896;2023-04-27T00:35:23;96331.47;;;7.31;79.00
45345;BME280;31078;48.304;11.896;2023-04-27T00:37:52;96327.66;;;7.32;78.41
45345;BME280;31078;48.304;11.896;2023-04-27T00:40:19;96326.06;;;7.31;78.17
45345;BME280;31078;48.304;11.896;2023-04-27T00:42:46;96323.34;;;7.31;78.41
45345;BME280;31078;48.304;11.896;2023-04-27T00:45:13;96330.38;;;7.32;79.07
45345;BME280;31078;48.304;11.896;2023-04-27T00:47:40;96326.88;;;7.31;79.19
45345;BME280;31078;48.304;11.896;2023-04-27T00:50:07;96327.94;;;7.30;79.33
45345;BME280;31078;48.304;11.896;2023-04-27T00:52:36;96323.94;;;7.28;79.74
45345;BME280;31078;48.304;11.896;2023-04-27T00:55:03;96325.31;;;7.25;80.19
45345;BME280;31078;48.304;11.896;2023-04-27T00:57:30;96328.94;;;7.21;80.15
45345;BME280;31078;48.304;11.896;2023-04-27T00:59:59;96324.41;;;7.16;80.25
45345;BME280;31078;48.304;11.896;2023-04-27T01:02:27;96324.13;;;7.18;80.17
45345;BME280;31078;48.304;11.896;2023-04-27T01:04:55;96320.31;;;7.19;80.38
45345;BME280;31078;48.304;11.896;2023-04-27T01:07:24;96324.13;;;7.18;79.44
45345;BME280;31078;48.304;11.896;2023-04-27T01:09:50;96326.81;;;7.18;76.89
45345;BME280;31078;48.304;11.896;2023-04-27T01:12:17;96324.69;;;7.15;74.64
45345;BME280;31078;48.304;11.896;2023-04-27T01:14:43;96326.31;;;7.16;75.28
45345;BME280;31078;48.304;11.896;2023-04-27T01:17:10;96326.31;;;7.16;75.60
45345;BME280;31078;48.304;11.896;2023-04-27T01:19:38;96321.50;;;7.13;74.41
45345;BME280;31078;48.304;11.896;2023-04-27T01:22:05;96322.59;;;7.12;74.91
45345;BME280;31078;48.304;11.896;2023-04-27T01:24:33;96320.47;;;7.09;74.68
45345;BME280;31078;48.304;11.896;2023-04-27T01:27:00;96329.19;;;7.05;74.40
45345;BME280;31078;48.304;11.896;2023-04-27T01:29:28;96315.44;;;7.02;74.84
45345;BME280;31078;48.304;11.896;2023-04-27T01:31:54;96321.44;;;6.99;74.87
45345;BME280;31078;48.304;11.896;2023-04-27T01:34:21;96322.03;;;6.96;74.45
45345;BME280;31078;48.304;11.896;2023-04-27T01:36:47;96321.91;;;6.87;74.98
45345;BME280;31078;48.304;11.896;2023-04-27T01:39:14;96322.59;;;6.79;75.50
45345;BME280;31078;48.304;11.896;2023-04-27T01:41:42;96326.44;;;6.73;76.14
45345;BME280;31078;48.304;11.896;2023-04-27T01:44:09;96326.50;;;6.68;76.55
45345;BME280;31078;48.304;11.896;2023-04-27T01:46:36;96324.41;;;6.65;77.00
45345;BME280;31078;48.304;11.896;2023-04-27T01:49:02;96327.13;;;6.65;77.55
45345;BME280;31078;48.304;11.896;2023-04-27T01:51:29;96322.00;;;6.63;78.21
45345;BME280;31078;48.304;11.896;2023-04-27T01:53:57;96320.38;;;6.62;78.63
45345;BME280;31078;48.304;11.896;2023-04-27T01:56:23;96323.88;;;6.63;78.24
45345;BME280;31078;48.304;11.896;2023-04-27T01:58:52;96329.28;;;6.63;78.40
45345;BME280;31078;48.304;11.896;2023-04-27T02:01:19;96329.28;;;6.63;78.24
45345;BME280;31078;48.304;11.896;2023-04-27T02:03:46;96328.28;;;6.59;78.33
45345;BME280;31078;48.304;11.896;2023-04-27T02:06:12;96328.06;;;6.55;78.62
45345;BME280;31078;48.304;11.896;2023-04-27T02:08:39;96334.88;;;6.52;78.43
45345;BME280;31078;48.304;11.896;2023-04-27T02:11:05;96327.25;;;6.54;78.65
45345;BME280;31078;48.304;11.896;2023-04-27T02:13:31;96332.91;;;6.58;79.22
45345;BME280;31078;48.304;11.896;2023-04-27T02:15:59;96338.50;;;6.62;80.11
45345;BME280;31078;48.304;11.896;2023-04-27T02:18:29;96335.31;;;6.60;79.74
45345;BME280;31078;48.304;11.896;2023-04-27T02:20:56;96343.94;;;6.62;79.64
45345;BME280;31078;48.304;11.896;2023-04-27T02:23:23;96343.94;;;6.62;79.63
45345;BME280;31078;48.304;11.896;2023-04-27T02:25:49;96343.44;;;6.60;79.63
45345;BME280;31078;48.304;11.896;2023-04-27T02:28:16;96338.50;;;6.62;79.79
45345;BME280;31078;48.304;11.896;2023-04-27T02:30:42;96342.81;;;6.63;79.55
45345;BME280;31078;48.304;11.896;2023-04-27T02:33:10;96337.13;;;6.64;79.18
45345;BME280;31078;48.304;11.896;2023-04-27T02:35:36;96341.44;;;6.65;80.13
45345;BME280;31078;48.304;11.896;2023-04-27T02:38:02;96335.72;;;6.67;80.41
45345;BME280;31078;48.304;11.896;2023-04-27T02:40:29;96343.78;;;6.72;80.34
45345;BME280;31078;48.304;11.896;2023-04-27T02:42:55;96340.50;;;6.75;80.47
45345;BME280;31078;48.304;11.896;2023-04-27T02:45:22;96339.41;;;6.76;80.42
45345;BME280;31078;48.304;11.896;2023-04-27T02:47:48;96348.63;;;6.75;80.33
45345;BME280;31078;48.304;11.896;2023-04-27T02:50:16;96338.59;;;6.75;79.52
45345;BME280;31078;48.304;11.896;2023-04-27T02:52:42;96345.31;;;6.78;79.29
45345;BME280;31078;48.304;11.896;2023-04-27T02:55:09;96341.00;;;6.77;78.66
45345;BME280;31078;48.304;11.896;2023-04-27T02:57:36;96338.81;;;6.79;78.96
45345;BME280;31078;48.304;11.896;2023-04-27T03:00:03;96342.31;;;6.79;79.69
45345;BME280;31078;48.304;11.896;2023-04-27T03:02:31;96339.31;;;6.81;80.30
45345;BME280;31078;48.304;11.896;2023-04-27T03:04:58;96345.22;;;6.83;80.60
45345;BME280;31078;48.304;11.896;2023-04-27T03:07:25;96346.03;;;6.84;81.25
45345;BME280;31078;48.304;11.896;2023-04-27T03:09:52;96340.13;;;6.82;81.03
45345;BME280;31078;48.304;11.896;2023-04-27T03:12:18;96340.69;;;6.78;81.44
45345;BME280;31078;48.304;11.896;2023-04-27T03:14:45;96335.88;;;6.75;81.72
45345;BME280;31078;48.304;11.896;2023-04-27T03:17:11;96336.75;;;6.71;81.14
45345;BME280;31078;48.304;11.896;2023-04-27T03:19:37;96336.53;;;6.67;80.89
45345;BME280;31078;48.304;11.896;2023-04-27T03:22:04;96342.81;;;6.63;81.23
45345;BME280;31078;48.304;11.896;2023-04-27T03:24:32;96339.91;;;6.59;81.35
45345;BME280;31078;48.304;11.896;2023-04-27T03:26:58;96346.69;;;6.57;81.88
45345;BME280;31078;48.304;11.896;2023-04-27T03:29:26;96345.69;;;6.52;82.42
45345;BME280;31078;48.304;11.896;2023-04-27T03:31:52;96349.06;;;6.44;81.80
45345;BME280;31078;48.304;11.896;2023-04-27T03:34:19;96348.63;;;6.37;80.73
45345;BME280;31078;48.304;11.896;2023-04-27T03:36:46;96357.06;;;6.31;80.39
45345;BME280;31078;48.304;11.896;2023-04-27T03:39:12;96358.53;;;6.23;80.81
45345;BME280;31078;48.304;11.896;2023-04-27T03:41:40;96356.69;;;6.18;80.77
45345;BME280;31078;48.304;11.896;2023-04-27T03:44:09;96365.16;;;6.12;81.02
45345;BME280;31078;48.304;11.896;2023-04-27T03:46:35;96360.63;;;6.07;81.77
45345;BME280;31078;48.304;11.896;2023-04-27T03:49:02;96365.28;;;6.01;82.03
45345;BME280;31078;48.304;11.896;2023-04-27T03:51:29;96363.72;;;5.95;82.06
45345;BME280;31078;48.304;11.896;2023-04-27T03:53:56;96360.00;;;5.91;82.61
45345;BME280;31078;48.304;11.896;2023-04-27T03:56:22;96367.03;;;5.87;83.08
45345;BME280;31078;48.304;11.896;2023-04-27T03:58:50;96370.28;;;5.84;82.96
45345;BME280;31078;48.304;11.896;2023-04-27T04:01:16;96372.25;;;5.79;83.11
45345;BME280;31078;48.304;11.896;2023-04-27T04:03:43;96369.84;;;5.77;83.11
45345;BME280;31078;48.304;11.896;2023-04-27T04:06:11;96373.63;;;5.76;83.60
45345;BME280;31078;48.304;11.896;2023-04-27T04:08:38;96385.53;;;5.75;83.77
45345;BME280;31078;48.304;11.896;2023-04-27T04:11:04;96392.31;;;5.72;83.65
45345;BME280;31078;48.304;11.896;2023-04-27T04:13:31;96388.28;;;5.70;83.42
45345;BME280;31078;48.304;11.896;2023-04-27T04:16:03;96399.09;;;5.70;83.70
45345;BME280;31078;48.304;11.896;2023-04-27T04:18:30;96392.06;;;5.69;84.04
45345;BME280;31078;48.304;11.896;2023-04-27T04:20:56;96397.25;;;5.65;83.77
45345;BME280;31078;48.304;11.896;2023-04-27T04:23:23;96399.72;;;5.62;83.88
45345;BME280;31078;48.304;11.896;2023-04-27T04:25:50;96404.59;;;5.60;84.01
45345;BME280;31078;48.304;11.896;2023-04-27T04:28:16;96403.00;;;5.59;84.61
45345;BME280;31078;48.304;11.896;2023-04-27T04:30:43;96404.59;;;5.60;85.03
45345;BME280;31078;48.304;11.896;2023-04-27T04:33:11;96399.72;;;5.62;85.47
45345;BME280;31078;48.304;11.896;2023-04-27T04:35:37;96413.66;;;5.69;85.62
45345;BME280;31078;48.304;11.896;2023-04-27T04:38:04;96410.91;;;5.74;85.86
45345;BME280;31078;48.304;11.896;2023-04-27T04:40:31;96412.50;;;5.80;86.12
45345;BME280;31078;48.304;11.896;2023-04-27T04:42:57;96415.66;;;5.92;86.76
45345;BME280;31078;48.304;11.896;2023-04-27T04:45:24;96420.38;;;6.06;87.27
45345;BME280;31078;48.304;11.896;2023-04-27T04:47:51;96418.13;;;6.13;86.91
45345;BME280;31078;48.304;11.896;2023-04-27T04:50:20;96421.88;;;6.17;86.82
45345;BME280;31078;48.304;11.896;2023-04-27T04:52:47;96423.88;;;6.06;85.98
45345;BME280;31078;48.304;11.896;2023-04-27T04:55:13;96423.28;;;6.09;85.36
45345;BME280;31078;48.304;11.896;2023-04-27T04:57:40;96422.94;;;6.16;84.22
45345;BME280;31078;48.304;11.896;2023-04-27T05:00:07;96423.66;;;6.26;83.77
45345;BME280;31078;48.304;11.896;2023-04-27T05:02:37;96418.94;;;6.37;83.63
45345;BME280;31078;48.304;11.896;2023-04-27T05:05:04;96427.00;;;6.42;83.69
45345;BME280;31078;48.304;11.896;2023-04-27T05:07:32;96421.72;;;6.51;83.49
45345;BME280;31078;48.304;11.896;2023-04-27T05:09:58;96422.47;;;6.57;82.35
45345;BME280;31078;48.304;11.896;2023-04-27T05:12:25;96425.69;;;6.59;82.18
45345;BME280;31078;48.304;11.896;2023-04-27T05:14:52;96420.50;;;6.62;81.14
45345;BME280;31078;48.304;11.896;2023-04-27T05:17:18;96431.19;;;6.72;80.58
45345;BME280;31078;48.304;11.896;2023-04-27T05:19:48;96418.91;;;6.80;80.07
45345;BME280;31078;48.304;11.896;2023-04-27T05:22:14;96426.88;;;6.90;79.74
45345;BME280;31078;48.304;11.896;2023-04-27T05:24:42;96441.34;;;6.99;79.03
45345;BME280;31078;48.304;11.896;2023-04-27T05:27:11;96433.16;;;7.04;77.92
45345;BME280;31078;48.304;11.896;2023-04-27T05:29:38;96436.91;;;6.90;76.04
45345;BME280;31078;48.304;11.896;2023-04-27T05:32:04;96426.50;;;6.97;76.39
45345;BME280;31078;48.304;11.896;2023-04-27T05:34:31;96434.19;;;7.09;76.24
45345;BME280;31078;48.304;11.896;2023-04-27T05:36:57;96433.00;;;7.15;75.92
45345;BME280;31078;48.304;11.896;2023-04-27T05:39:24;96430.84;;;7.17;75.31
45345;BME280;31078;48.304;11.896;2023-04-27T05:41:51;96435.00;;;7.28;75.07
45345;BME280;31078;48.304;11.896;2023-04-27T05:44:18;96437.47;;;7.24;75.35
45345;BME280;31078;48.304;11.896;2023-04-27T05:46:45;96436.03;;;7.32;73.85
45345;BME280;31078;48.304;11.896;2023-04-27T05:49:11;96438.25;;;7.44;73.99
45345;BME280;31078;48.304;11.896;2023-04-27T05:51:38;96434.28;;;7.55;73.57
45345;BME280;31078;48.304;11.896;2023-04-27T05:54:04;96440.41;;;7.61;73.81
45345;BME280;31078;48.304;11.896;2023-04-27T05:56:30;96448.06;;;7.72;73.28
45345;BME280;31078;48.304;11.896;2023-04-27T05:58:58;96453.13;;;7.79;73.01
45345;BME280;31078;48.304;11.896;2023-04-27T06:01:25;96453.50;;;7.72;69.97
45345;BME280;31078;48.304;11.896;2023-04-27T06:03:51;96458.34;;;7.75;69.24
45345;BME280;31078;48.304;11.896;2023-04-27T06:06:17;96453.94;;;7.79;69.90
45345;BME280;31078;48.304;11.896;2023-04-27T06:08:44;96456.72;;;7.74;68.86
45345;BME280;31078;48.304;11.896;2023-04-27T06:11:10;96459.94;;;7.76;67.61
45345;BME280;31078;48.304;11.896;2023-04-27T06:13:37;96457.22;;;7.76;67.66
45345;BME280;31078;48.304;11.896;2023-04-27T06:16:05;96452.75;;;7.85;69.00
45345;BME280;31078;48.304;11.896;2023-04-27T06:18:32;96462.22;;;8.02;70.07
45345;BME280;31078;48.304;11.896;2023-04-27T06:20:58;96457.41;;;8.13;70.13
45345;BME280;31078;48.304;11.896;2023-04-27T06:23:26;96454.91;;;8.16;68.89
45345;BME280;31078;48.304;11.896;2023-04-27T06:25:52;96458.03;;;8.23;67.72
45345;BME280;31078;48.304;11.896;2023-04-27T06:28:19;96452.94;;;8.35;67.73
45345;BME280;31078;48.304;11.896;2023-04-27T06:30:45;96448.03;;;8.38;68.44
45345;BME280;31078;48.304;11.896;2023-04-27T06:33:13;96444.97;;;8.25;68.46
45345;BME280;31078;48.304;11.896;2023-04-27T06:35:39;96453.66;;;8.41;68.63
45345;BME280;31078;48.304;11.896;2023-04-27T06:38:06;96463.69;;;8.54;68.66
45345;BME280;31078;48.304;11.896;2023-04-27T06:40:32;96461.06;;;8.77;68.38
45345;BME280;31078;48.304;11.896;2023-04-27T06:42:59;96471.22;;;8.85;67.37
45345;BME280;31078;48.304;11.896;2023-04-27T06:45:25;96470.53;;;8.79;67.10
45345;BME280;31078;48.304;11.896;2023-04-27T06:47:52;96467.91;;;8.88;67.40
45345;BME280;31078;48.304;11.896;2023-04-27T06:50:19;96473.72;;;8.95;66.28
45345;BME280;31078;48.304;11.896;2023-04-27T06:52:46;96474.13;;;8.88;66.38
45345;BME280;31078;48.304;11.896;2023-04-27T06:55:12;96480.22;;;9.08;66.90
45345;BME280;31078;48.304;11.896;2023-04-27T06:57:39;96473.72;;;8.95;68.18
45345;BME280;31078;48.304;11.896;2023-04-27T07:00:06;96476.16;;;8.83;67.88
45345;BME280;31078;48.304;11.896;2023-04-27T07:02:33;96481.38;;;8.93;66.83
45345;BME280;31078;48.304;11.896;2023-04-27T07:04:59;96480.09;;;9.13;66.07
45345;BME280;31078;48.304;11.896;2023-04-27T07:07:27;96475.50;;;9.13;67.38
45345;BME280;31078;48.304;11.896;2023-04-27T07:09:54;96475.66;;;9.31;66.52
45345;BME280;31078;48.304;11.896;2023-04-27T07:12:20;96485.91;;;9.34;66.23
45345;BME280;31078;48.304;11.896;2023-04-27T07:14:46;96483.63;;;9.50;65.92
45345;BME280;31078;48.304;11.896;2023-04-27T07:17:15;96476.03;;;9.38;65.50
45345;BME280;31078;48.304;11.896;2023-04-27T07:19:41;96474.63;;;9.40;65.31
45345;BME280;31078;48.304;11.896;2023-04-27T07:22:07;96475.09;;;9.65;65.41
45345;BME280;31078;48.304;11.896;2023-04-27T07:24:36;96479.34;;;9.71;65.42
45345;BME280;31078;48.304;11.896;2023-04-27T07:27:02;96472.81;;;9.81;66.05
45345;BME280;31078;48.304;11.896;2023-04-27T07:29:29;96467.50;;;9.98;66.35
45345;BME280;31078;48.304;11.896;2023-04-27T07:31:56;96466.72;;;9.98;64.91
45345;BME280;31078;48.304;11.896;2023-04-27T07:34:22;96463.72;;;10.08;63.78
45345;BME280;31078;48.304;11.896;2023-04-27T07:36:50;96470.41;;;10.24;64.02
45345;BME280;31078;48.304;11.896;2023-04-27T07:39:18;96474.66;;;10.16;60.14
45345;BME280;31078;48.304;11.896;2023-04-27T07:41:46;96465.22;;;10.23;62.12
45345;BME280;31078;48.304;11.896;2023-04-27T07:44:14;96476.78;;;10.51;62.52
45345;BME280;31078;48.304;11.896;2023-04-27T07:46:40;96473.47;;;10.71;61.79
45345;BME280;31078;48.304;11.896;2023-04-27T07:49:07;96473.09;;;10.55;59.79
45345;BME280;31078;48.304;11.896;2023-04-27T07:51:34;96478.81;;;10.93;59.21
45345;BME280;31078;48.304;11.896;2023-04-27T07:54:01;96480.47;;;11.20;59.56
45345;BME280;31078;48.304;11.896;2023-04-27T07:56:28;96480.47;;;11.38;58.26
45345;BME280;31078;48.304;11.896;2023-04-27T07:58:56;96478.41;;;11.35;55.70
45345;BME280;31078;48.304;11.896;2023-04-27T08:01:22;96480.81;;;11.45;55.96
45345;BME280;31078;48.304;11.896;2023-04-27T08:03:49;96482.59;;;11.49;56.34
45345;BME280;31078;48.304;11.896;2023-04-27T08:06:16;96480.81;;;11.62;56.10
45345;BME280;31078;48.304;11.896;2023-04-27T08:08:43;96473.44;;;11.80;56.47
45345;BME280;31078;48.304;11.896;2023-04-27T08:11:10;96477.59;;;11.77;54.29
45345;BME280;31078;48.304;11.896;2023-04-27T08:13:36;96472.81;;;11.74;55.19
45345;BME280;31078;48.304;11.896;2023-04-27T08:16:05;96481.94;;;11.79;53.56
45345;BME280;31078;48.304;11.896;2023-04-27T08:18:31;96481.78;;;12.01;53.01
45345;BME280;31078;48.304;11.896;2023-04-27T08:20:58;96481.44;;;12.11;52.51
45345;BME280;31078;48.304;11.896;2023-04-27T08:23:25;96487.88;;;11.63;47.41
45345;BME280;31078;48.304;11.896;2023-04-27T08:25:52;96489.19;;;11.74;49.35
45345;BME280;31078;48.304;11.896;2023-04-27T08:28:19;96493.63;;;12.05;53.23
45345;BME280;31078;48.304;11.896;2023-04-27T08:30:46;96488.34;;;12.00;46.67
45345;BME280;31078;48.304;11.896;2023-04-27T08:33:13;96493.63;;;12.22;47.54
45345;BME280;31078;48.304;11.896;2023-04-27T08:35:40;96502.22;;;12.50;48.33
45345;BME280;31078;48.304;11.896;2023-04-27T08:38:06;96491.44;;;12.54;47.03
45345;BME280;31078;48.304;11.896;2023-04-27T08:40:33;96495.63;;;12.51;48.42
45345;BME280;31078;48.304;11.896;2023-04-27T08:42:59;96494.47;;;12.61;47.63
45345;BME280;31078;48.304;11.896;2023-04-27T08:45:26;96493.34;;;12.92;47.81
45345;BME280;31078;48.304;11.896;2023-04-27T08:47:53;96486.88;;;13.05;47.83
45345;BME280;31078;48.304;11.896;2023-04-27T08:50:21;96492.75;;;13.16;47.81
45345;BME280;31078;48.304;11.896;2023-04-27T08:52:50;96493.66;;;13.28;47.64
45345;BME280;31078;48.304;11.896;2023-04-27T08:55:17;96495.25;;;13.29;48.11
45345;BME280;31078;48.304;11.896;2023-04-27T08:57:53;96492.81;;;13.37;45.42
45345;BME280;31078;48.304;11.896;2023-04-27T09:00:20;96492.53;;;13.29;44.58
45345;BME280;31078;48.304;11.896;2023-04-27T09:02:47;96496.28;;;12.87;47.09
45345;BME280;31078;48.304;11.896;2023-04-27T09:05:15;96496.84;;;13.01;45.59
45345;BME280;31078;48.304;11.896;2023-04-27T09:07:54;96481.66;;;13.12;44.41
45345;BME280;31078;48.304;11.896;2023-04-27T09:10:21;96483.66;;;13.03;45.74
45345;BME280;31078;48.304;11.896;2023-04-27T09:12:54;96492.59;;;13.12;45.35
45345;BME280;31078;48.304;11.896;2023-04-27T09:15:21;96490.00;;;13.45;44.37
45345;BME280;31078;48.304;11.896;2023-04-27T09:17:52;96487.94;;;13.21;48.14
45345;BME280;31078;48.304;11.896;2023-04-27T09:20:18;96486.44;;;13.24;45.09
45345;BME280;31078;48.304;11.896;2023-04-27T09:22:51;96485.88;;;13.60;44.40
45345;BME280;31078;48.304;11.896;2023-04-27T09:25:24;96485.44;;;13.91;45.18
45345;BME280;31078;48.304;11.896;2023-04-27T09:27:50;96486.38;;;14.41;44.85
45345;BME280;31078;48.304;11.896;2023-04-27T09:30:17;96482.25;;;14.80;43.13
45345;BME280;31078;48.304;11.896;2023-04-27T09:32:54;96479.84;;;14.91;42.41
45345;BME280;31078;48.304;11.896;2023-04-27T09:35:22;96477.25;;;14.94;40.52
45345;BME280;31078;48.304;11.896;2023-04-27T09:37:51;96473.81;;;15.09;42.74
45345;BME280;31078;48.304;11.896;2023-04-27T09:40:18;96465.22;;;15.35;43.16
45345;BME280;31078;48.304;11.896;2023-04-27T09:42:48;96464.16;;;15.93;41.36
45345;BME280;31078;48.304;11.896;2023-04-27T09:45:14;96466.44;;;15.90;40.23
45345;BME280;31078;48.304;11.896;2023-04-27T09:47:42;96460.00;;;15.99;42.66
45345;BME280;31078;48.304;11.896;2023-04-27T09:50:11;96464.72;;;15.86;39.27
45345;BME280;31078;48.304;11.896;2023-04-27T09:52:39;96463.59;;;16.15;43.50
45345;BME280;31078;48.304;11.896;2023-04-27T09:55:08;96453.28;;;16.87;42.01
45345;BME280;31078;48.304;11.896;2023-04-27T09:57:39;96447.19;;;17.29;40.11
45345;BME280;31078;48.304;11.896;2023-04-27T10:00:16;96454.56;;;17.25;38.24
45345;BME280;31078;48.304;11.896;2023-04-27T10:02:51;96451.97;;;16.81;38.47
45345;BME280;31078;48.304;11.896;2023-04-27T10:05:29;96452.28;;;16.95;40.40
45345;BME280;31078;48.304;11.896;2023-04-27T10:08:01;96453.03;;;16.92;38.63
45345;BME280;31078;48.304;11.896;2023-04-27T10:10:41;96443.41;;;17.18;41.64
45345;BME280;31078;48.304;11.896;2023-04-27T10:13:07;96440.47;;;17.46;40.94
45345;BME280;31078;48.304;11.896;2023-04-27T10:15:38;96436.78;;;17.22;41.83
45345;BME280;31078;48.304;11.896;2023-04-27T10:18:05;96440.25;;;16.84;39.91
45345;BME280;31078;48.304;11.896;2023-04-27T10:20:35;96433.84;;;16.80;39.39
45345;BME280;31078;48.304;11.896;2023-04-27T10:23:02;96440.19;;;17.16;42.43
45345;BME280;31078;48.304;11.896;2023-04-27T10:25:38;96437.22;;;16.89;39.99
45345;BME280;31078;48.304;11.896;2023-04-27T10:28:05;96430.13;;;16.88;43.83
45345;BME280;31078;48.304;11.896;2023-04-27T10:30:33;96437.34;;;17.28;39.45
45345;BME280;31078;48.304;11.896;2023-04-27T10:33:04;96434.47;;;16.89;41.48
45345;BME280;31078;48.304;11.896;2023-04-27T10:35:32;96434.19;;;16.94;40.11
45345;BME280;31078;48.304;11.896;2023-04-27T10:38:06;96427.81;;;16.59;41.90
45345;BME280;31078;48.304;11.896;2023-04-27T10:40:36;96421.59;;;16.46;44.64
45345;BME280;31078;48.304;11.896;2023-04-27T10:43:09;96425.94;;;16.63;42.25
45345;BME280;31078;48.304;11.896;2023-04-27T10:45:36;96422.38;;;17.10;39.60
45345;BME280;31078;48.304;11.896;2023-04-27T10:48:04;96430.41;;;17.34;41.11
45345;BME280;31078;48.304;11.896;2023-04-27T10:50:31;96431.97;;;16.68;39.27
45345;BME280;31078;48.304;11.896;2023-04-27T10:53:01;96426.75;;;16.48;42.95
45345;BME280;31078;48.304;11.896;2023-04-27T10:55:29;96422.78;;;16.61;39.27
45345;BME280;31078;48.304;11.896;2023-04-27T10:57:57;96425.94;;;16.94;41.07
45345;BME280;31078;48.304;11.896;2023-04-27T11:00:25;96430.56;;;16.90;40.34
45345;BME280;31078;48.304;11.896;2023-04-27T11:02:53;96424.25;;;17.06;38.31
45345;BME280;31078;48.304;11.896;2023-04-27T11:05:22;96428.31;;;16.17;40.04
45345;BME280;31078;48.304;11.896;2023-04-27T11:08:03;96427.84;;;15.99;44.10
45345;BME280;31078;48.304;11.896;2023-04-27T11:10:31;96423.47;;;15.82;40.87
45345;BME280;31078;48.304;11.896;2023-04-27T11:13:05;96421.69;;;15.62;42.37
45345;BME280;31078;48.304;11.896;2023-04-27T11:15:41;96416.94;;;15.47;43.43
45345;BME280;31078;48.304;11.896;2023-04-27T11:18:07;96416.66;;;15.64;43.44
45345;BME280;31078;48.304;11.896;2023-04-27T11:20:34;96428.06;;;15.78;40.46
45345;BME280;31078;48.304;11.896;2023-04-27T11:23:01;96424.34;;;15.86;41.68
45345;BME280;31078;48.304;11.896;2023-04-27T11:25:28;96428.09;;;15.54;43.58
45345;BME280;31078;48.304;11.896;2023-04-27T11:27:54;96418.75;;;15.83;45.04
45345;BME280;31078;48.304;11.896;2023-04-27T11:30:23;96420.53;;;16.19;41.87
45345;BME280;31078;48.304;11.896;2023-04-27T11:32:50;96417.16;;;16.41;41.88
45345;BME280;31078;48.304;11.896;2023-04-27T11:35:17;96417.88;;;16.54;42.55
45345;BME280;31078;48.304;11.896;2023-04-27T11:37:54;96412.88;;;16.28;42.11
45345;BME280;31078;48.304;11.896;2023-04-27T11:40:22;96418.91;;;15.74;39.72
45345;BME280;31078;48.304;11.896;2023-04-27T11:42:55;96423.94;;;16.00;40.20
45345;BME280;31078;48.304;11.896;2023-04-27T11:45:25;96419.13;;;15.97;41.58
45345;BME280;31078;48.304;11.896;2023-04-27T11:47:53;96419.97;;;15.17;42.50
45345;BME280;31078;48.304;11.896;2023-04-27T11:50:23;96418.94;;;15.22;42.64
45345;BME280;31078;48.304;11.896;2023-04-27T11:52:49;96420.16;;;15.24;42.81
45345;BME280;31078;48.304;11.896;2023-04-27T11:55:19;96424.34;;;14.94;44.45
45345;BME280;31078;48.304;11.896;2023-04-27T11:57:46;96425.81;;;14.67;44.06
45345;BME280;31078;48.304;11.896;2023-04-27T12:00:13;96429.03;;;14.69;44.32
45345;BME280;31078;48.304;11.896;2023-04-27T12:02:42;96426.56;;;15.28;46.61
45345;BME280;31078;48.304;11.896;2023-04-27T12:05:09;96425.56;;;15.61;42.94
45345;BME280;31078;48.304;11.896;2023-04-27T12:07:36;96423.88;;;14.92;42.26
45345;BME280;31078;48.304;11.896;2023-04-27T12:10:03;96430.25;;;14.47;44.44
45345;BME280;31078;48.304;11.896;2023-04-27T12:12:30;96429.72;;;14.08;44.64
45345;BME280;31078;48.304;11.896;2023-04-27T12:14:57;96422.00;;;14.22;44.60
45345;BME280;31078;48.304;11.896;2023-04-27T12:17:24;96420.06;;;14.23;44.57
45345;BME280;31078;48.304;11.896;2023-04-27T12:19:52;96426.94;;;14.41;45.58
45345;BME280;31078;48.304;11.896;2023-04-27T12:22:19;96422.47;;;14.36;42.56
45345;BME280;31078;48.304;11.896;2023-04-27T12:24:45;96427.59;;;14.38;45.22
45345;BME280;31078;48.304;11.896;2023-04-27T12:27:12;96428.63;;;14.46;42.83
45345;BME280;31078;48.304;11.896;2023-04-27T12:29:38;96420.00;;;14.80;44.17
45345;BME280;31078;48.304;11.896;2023-04-27T12:32:05;96422.66;;;15.29;42.83
45345;BME280;31078;48.304;11.896;2023-04-27T12:34:32;96429.69;;;15.67;45.20
45345;BME280;31078;48.304;11.896;2023-04-27T12:37:00;96417.56;;;15.68;45.70
45345;BME280;31078;48.304;11.896;2023-04-27T12:39:26;96417.28;;;16.01;40.53
45345;BME280;31078;48.304;11.896;2023-04-27T12:41:53;96418.38;;;16.28;41.30
45345;BME280;31078;48.304;11.896;2023-04-27T12:44:19;96423.72;;;16.53;39.12
45345;BME280;31078;48.304;11.896;2023-04-27T12:46:46;96419.50;;;16.55;39.20
45345;BME280;31078;48.304;11.896;2023-04-27T12:49:13;96426.47;;;16.53;37.95
45345;BME280;31078;48.304;11.896;2023-04-27T12:51:40;96419.00;;;16.22;38.72
45345;BME280;31078;48.304;11.896;2023-04-27T12:54:08;96421.34;;;15.91;40.11
45345;BME280;31078;48.304;11.896;2023-04-27T12:56:35;96417.94;;;16.10;38.65